createdAt,value
2023-03-12T00:01:20.136Z,96366.75
2023-03-12T00:03:47.902Z,96369.28
2023-03-12T00:06:15.120Z,96373.25
2023-03-12T00:08:42.163Z,96375.44
2023-03-12T00:11:12.259Z,96375.59
2023-03-12T00:13:39.746Z,96377.41
2023-03-12T00:16:16.013Z,96374.84
2023-03-12T00:18:43.919Z,96381.50
2023-03-12T00:21:11.061Z,96383.91
2023-03-12T00:23:37.561Z,96382.13
2023-03-12T00:26:06.963Z,96387.22
2023-03-12T00:28:35.010Z,96387.75
2023-03-12T00:31:02.538Z,96385.81
2023-03-12T00:33:29.477Z,96388.31
2023-03-12T00:36:01.693Z,96387.22
2023-03-12T00:38:28.193Z,96390.41
2023-03-12T00:40:54.731Z,96394.53
2023-03-12T00:43:21.382Z,96397.75
2023-03-12T00:45:47.926Z,96395.31
2023-03-12T00:48:14.570Z,96397.66
2023-03-12T00:50:41.103Z,96395.91
2023-03-12T00:53:07.969Z,96395.03
2023-03-12T00:55:34.517Z,96400.34
2023-03-12T00:58:00.984Z,96394.44
2023-03-12T01:00:27.878Z,96394.53
2023-03-12T01:02:55.377Z,96387.97
2023-03-12T01:05:21.892Z,96391.06
2023-03-12T01:07:48.332Z,96399.47
2023-03-12T01:10:17.454Z,96390.91
2023-03-12T01:12:44.001Z,96397.22
2023-03-12T01:15:16.673Z,96406.28
2023-03-12T01:17:43.267Z,96400.19
2023-03-12T01:20:10.881Z,96392.50
2023-03-12T01:22:37.553Z,96398.31
2023-03-12T01:25:04.178Z,96397.31
2023-03-12T01:27:30.672Z,96386.28
2023-03-12T01:29:57.093Z,96394.53
2023-03-12T01:32:23.806Z,96390.25
2023-03-12T01:34:50.214Z,96389.25
2023-03-12T01:37:16.593Z,96393.13
2023-03-12T01:39:43.006Z,96387.19
2023-03-12T01:42:09.459Z,96398.81
2023-03-12T01:45:01.672Z,96394.28
2023-03-12T01:47:32.013Z,96383.34
2023-03-12T01:50:00.598Z,96390.69
2023-03-12T01:52:35.868Z,96380.38
2023-03-12T01:55:09.478Z,96383.47
2023-03-12T01:58:02.369Z,96379.69
2023-03-12T02:00:28.921Z,96383.06
2023-03-12T02:03:00.471Z,96379.53
2023-03-12T02:05:30.301Z,96386.06
2023-03-12T02:07:57.550Z,96380.91
2023-03-12T02:10:26.098Z,96383.25
2023-03-12T02:12:53.204Z,96389.94
2023-03-12T02:15:19.881Z,96395.69
2023-03-12T02:17:46.363Z,96384.56
2023-03-12T02:20:39.443Z,96387.00
2023-03-12T02:23:31.961Z,96388.44
2023-03-12T02:26:01.355Z,96391.59
2023-03-12T02:28:29.852Z,96393.06
2023-03-12T02:31:03.388Z,96393.84
2023-03-12T02:33:29.892Z,96400.31
2023-03-12T02:35:56.704Z,96396.00
2023-03-12T02:38:37.505Z,96404.22
2023-03-12T02:41:11.614Z,96404.16
2023-03-12T02:43:39.084Z,96403.28
2023-03-12T02:46:08.118Z,96398.84
2023-03-12T02:48:34.729Z,96400.34
2023-03-12T02:51:03.315Z,96404.66
2023-03-12T02:53:30.095Z,96401.22
2023-03-12T02:55:56.714Z,96402.00
2023-03-12T02:58:23.102Z,96402.78
2023-03-12T03:00:49.694Z,96404.38
2023-03-12T03:03:16.245Z,96398.41
2023-03-12T03:05:42.682Z,96409.94
2023-03-12T03:08:09.355Z,96410.81
2023-03-12T03:10:35.827Z,96409.94
2023-03-12T03:13:02.300Z,96414.72
2023-03-12T03:15:29.790Z,96412.06
2023-03-12T03:17:56.412Z,96413.78
2023-03-12T03:20:24.648Z,96414.66
2023-03-12T03:22:51.038Z,96417.84
2023-03-12T03:25:18.178Z,96418.72
2023-03-12T03:27:44.679Z,96415.28
2023-03-12T03:30:11.991Z,96423.59
2023-03-12T03:32:38.682Z,96421.94
2023-03-12T03:35:05.740Z,96430.38
2023-03-12T03:37:32.128Z,96442.31
2023-03-12T03:39:58.832Z,96438.13
2023-03-12T03:42:25.727Z,96440.50
2023-03-12T03:44:52.093Z,96440.63
2023-03-12T03:47:18.577Z,96443.13
2023-03-12T03:49:45.134Z,96441.50
2023-03-12T03:52:11.515Z,96445.81
2023-03-12T03:54:37.877Z,96443.22
2023-03-12T03:57:04.582Z,96459.44
2023-03-12T03:59:31.106Z,96455.28
2023-03-12T04:01:57.504Z,96460.44
2023-03-12T04:04:23.941Z,96460.53
2023-03-12T04:06:50.414Z,96458.09
2023-03-12T04:09:16.892Z,96458.41
2023-03-12T04:11:43.539Z,96455.91
2023-03-12T04:14:10.143Z,96458.47
2023-03-12T04:16:36.526Z,96460.44
2023-03-12T04:19:03.047Z,96453.13
2023-03-12T04:21:29.562Z,96456.63
2023-03-12T04:23:56.016Z,96455.13
2023-03-12T04:26:22.535Z,96447.59
2023-03-12T04:28:49.077Z,96442.59
2023-03-12T04:31:15.663Z,96442.75
2023-03-12T04:33:42.181Z,96450.38
2023-03-12T04:36:08.942Z,96447.03
2023-03-12T04:38:35.407Z,96455.44
2023-03-12T04:41:11.287Z,96449.56
2023-03-12T04:43:37.991Z,96442.09
2023-03-12T04:46:06.070Z,96437.16
2023-03-12T04:48:33.098Z,96426.28
2023-03-12T04:50:59.607Z,96438.03
2023-03-12T04:53:26.130Z,96446.34
2023-03-12T04:55:52.647Z,96439.59
2023-03-12T04:58:20.453Z,96437.16
2023-03-12T05:00:48.285Z,96441.31
2023-03-12T05:03:14.835Z,96444.63
2023-03-12T05:05:41.359Z,96434.59
2023-03-12T05:08:07.898Z,96432.25
2023-03-12T05:10:34.390Z,96437.31
2023-03-12T05:13:00.809Z,96440.63
2023-03-12T05:15:28.404Z,96440.63
2023-03-12T05:17:55.025Z,96437.25
2023-03-12T05:20:21.575Z,96445.66
2023-03-12T05:22:48.031Z,96439.75
2023-03-12T05:25:14.540Z,96442.41
2023-03-12T05:27:40.963Z,96431.50
2023-03-12T05:30:08.093Z,96430.63
2023-03-12T05:32:34.493Z,96428.91
2023-03-12T05:35:00.878Z,96434.78
2023-03-12T05:37:27.430Z,96433.16
2023-03-12T05:39:54.625Z,96447.34
2023-03-12T05:42:21.202Z,96440.09
2023-03-12T05:44:47.769Z,96451.00
2023-03-12T05:47:14.306Z,96439.31
2023-03-12T05:49:40.898Z,96447.81
2023-03-12T05:52:07.554Z,96449.44
2023-03-12T05:54:34.135Z,96446.84
2023-03-12T05:57:00.615Z,96445.34
2023-03-12T05:59:27.111Z,96446.28
2023-03-12T06:01:53.730Z,96442.91
2023-03-12T06:04:20.387Z,96439.63
2023-03-12T06:06:47.343Z,96448.09
2023-03-12T06:09:13.903Z,96450.72
2023-03-12T06:11:40.425Z,96455.06
2023-03-12T06:14:06.971Z,96451.03
2023-03-12T06:16:33.571Z,96457.91
2023-03-12T06:19:02.670Z,96443.56
2023-03-12T06:21:32.654Z,96453.84
2023-03-12T06:24:00.007Z,96448.72
2023-03-12T06:26:27.476Z,96447.53
2023-03-12T06:28:54.832Z,96449.59
2023-03-12T06:31:21.822Z,96445.66
2023-03-12T06:33:48.953Z,96448.28
2023-03-12T06:36:15.566Z,96450.72
2023-03-12T06:38:42.124Z,96460.22
2023-03-12T06:41:11.613Z,96456.41
2023-03-12T06:43:39.202Z,96451.66
2023-03-12T06:46:08.554Z,96455.06
2023-03-12T06:48:41.338Z,96450.06
2023-03-12T06:51:10.605Z,96458.53
2023-03-12T06:53:37.285Z,96463.94
2023-03-12T06:56:04.205Z,96467.31
2023-03-12T06:58:31.250Z,96468.25
2023-03-12T07:00:57.926Z,96475.94
2023-03-12T07:03:24.517Z,96477.13
2023-03-12T07:05:51.991Z,96478.13
2023-03-12T07:08:19.667Z,96485.88
2023-03-12T07:10:46.193Z,96485.94
2023-03-12T07:13:13.674Z,96495.47
2023-03-12T07:15:40.706Z,96496.59
2023-03-12T07:18:11.470Z,96500.09
2023-03-12T07:20:39.972Z,96494.47
2023-03-12T07:23:06.965Z,96494.53
2023-03-12T07:25:40.079Z,96500.63
2023-03-12T07:28:07.867Z,96499.31
2023-03-12T07:30:34.609Z,96496.22
2023-03-12T07:33:02.819Z,96493.00
2023-03-12T07:35:30.143Z,96486.50
2023-03-12T07:37:57.123Z,96497.06
2023-03-12T07:40:23.668Z,96498.13
2023-03-12T07:42:51.114Z,96495.16
2023-03-12T07:45:18.404Z,96486.28
2023-03-12T07:47:45.118Z,96489.28
2023-03-12T07:50:12.566Z,96488.91
2023-03-12T07:52:39.230Z,96483.38
2023-03-12T07:55:07.624Z,96486.91
2023-03-12T07:57:34.090Z,96480.38
2023-03-12T08:00:00.700Z,96478.28
2023-03-12T08:02:28.302Z,96475.31
2023-03-12T08:04:54.928Z,96471.53
2023-03-12T08:07:21.684Z,96491.19
2023-03-12T08:09:49.437Z,96473.66
2023-03-12T08:12:16.054Z,96464.41
2023-03-12T08:14:42.822Z,96466.09
2023-03-12T08:17:10.446Z,96469.78
2023-03-12T08:19:37.405Z,96475.09
2023-03-12T08:22:03.966Z,96473.25
2023-03-12T08:24:30.395Z,96463.88
2023-03-12T08:26:57.807Z,96465.97
2023-03-12T08:29:25.601Z,96448.50
2023-03-12T08:32:04.608Z,96461.75
2023-03-12T08:34:35.479Z,96448.41
2023-03-12T08:37:02.918Z,96456.59
2023-03-12T08:39:29.552Z,96451.97
2023-03-12T08:41:56.949Z,96460.00
2023-03-12T08:44:24.747Z,96451.81
2023-03-12T08:46:52.729Z,96458.03
2023-03-12T08:49:21.377Z,96458.28
2023-03-12T08:51:48.544Z,96458.16
2023-03-12T08:54:16.020Z,96449.97
2023-03-12T08:56:44.394Z,96436.34
2023-03-12T08:59:11.583Z,96436.00
2023-03-12T09:01:38.390Z,96440.50
2023-03-12T09:04:05.682Z,96432.88
2023-03-12T09:06:35.355Z,96440.59
2023-03-12T09:09:05.085Z,96439.16
2023-03-12T09:11:39.515Z,96453.72
2023-03-12T09:14:49.831Z,96458.38
2023-03-12T09:16:52.470Z,96453.28
2023-03-12T09:19:19.012Z,96449.69
2023-03-12T09:21:45.450Z,96449.94
2023-03-12T09:24:12.216Z,96448.41
2023-03-12T09:26:38.624Z,96447.06
2023-03-12T09:29:05.550Z,96446.84
2023-03-12T09:31:32.113Z,96440.50
2023-03-12T09:33:58.637Z,96438.22
2023-03-12T09:36:26.391Z,96440.94
2023-03-12T09:38:52.837Z,96437.97
2023-03-12T09:41:33.721Z,96437.81
2023-03-12T09:44:10.181Z,96440.19
2023-03-12T09:46:43.156Z,96438.50
2023-03-12T09:49:40.693Z,96447.88
2023-03-12T09:52:31.931Z,96440.22
2023-03-12T09:55:17.176Z,96440.41
2023-03-12T09:57:44.772Z,96438.81
2023-03-12T10:00:14.389Z,96445.78
2023-03-12T10:03:05.837Z,96442.16
2023-03-12T10:05:34.979Z,96448.66
2023-03-12T10:08:26.243Z,96446.66
2023-03-12T10:11:02.856Z,96449.75
2023-03-12T10:14:10.736Z,96447.09
2023-03-12T10:16:54.608Z,96448.81
2023-03-12T10:19:36.021Z,96447.56
2023-03-12T10:22:15.694Z,96442.75
2023-03-12T10:24:56.594Z,96437.41
2023-03-12T10:27:27.990Z,96443.81
2023-03-12T10:29:55.282Z,96444.06
2023-03-12T10:32:45.854Z,96447.53
2023-03-12T10:35:24.192Z,96454.47
2023-03-12T10:38:04.499Z,96445.91
2023-03-12T10:40:34.553Z,96444.34
2023-03-12T10:43:02.523Z,96451.13
2023-03-12T10:46:02.205Z,96457.63
2023-03-12T10:48:28.667Z,96454.91
2023-03-12T10:51:03.393Z,96455.81
2023-03-12T10:53:33.226Z,96450.66
2023-03-12T10:56:01.402Z,96446.50
2023-03-12T10:58:35.024Z,96438.06
2023-03-12T11:01:04.386Z,96445.84
2023-03-12T11:03:31.775Z,96440.84
2023-03-12T11:06:05.984Z,96442.38
2023-03-12T11:08:35.720Z,96455.03
2023-03-12T11:11:03.993Z,96438.75
2023-03-12T11:13:30.341Z,96433.56
2023-03-12T11:15:59.972Z,96444.41
2023-03-12T11:18:30.307Z,96443.38
2023-03-12T11:21:10.622Z,96440.97
2023-03-12T11:23:43.877Z,96435.13
2023-03-12T11:26:16.187Z,96436.78
2023-03-12T11:28:56.252Z,96443.50
2023-03-12T11:31:27.608Z,96449.50
2023-03-12T11:34:03.606Z,96446.06
2023-03-12T11:36:51.330Z,96440.97
2023-03-12T11:39:43.884Z,96454.41
2023-03-12T11:42:44.855Z,96455.13
2023-03-12T11:45:26.354Z,96451.28
2023-03-12T11:48:01.996Z,96451.81
2023-03-12T11:50:45.938Z,96449.00
2023-03-12T11:53:44.722Z,96442.00
2023-03-12T11:56:37.752Z,96441.88
2023-03-12T11:59:23.014Z,96442.66
2023-03-12T12:02:04.485Z,96437.69
2023-03-12T12:04:48.721Z,96443.78
2023-03-12T12:07:39.981Z,96428.59
2023-03-12T12:10:09.363Z,96426.97
2023-03-12T12:13:22.247Z,96424.47
2023-03-12T12:16:22.233Z,96419.19
2023-03-12T12:19:18.242Z,96412.53
2023-03-12T12:21:54.762Z,96406.63
2023-03-12T12:24:30.986Z,96407.69
2023-03-12T12:27:38.626Z,96414.25
2023-03-12T12:30:47.055Z,96415.81
2023-03-12T12:33:56.212Z,96408.22
2023-03-12T12:36:27.345Z,96410.81
2023-03-12T12:39:01.281Z,96408.31
2023-03-12T12:41:34.662Z,96403.19
2023-03-12T12:44:30.060Z,96400.84
2023-03-12T12:47:03.839Z,96389.75
2023-03-12T12:49:46.971Z,96389.69
2023-03-12T12:52:20.062Z,96383.75
2023-03-12T12:54:55.209Z,96387.31
2023-03-12T12:57:53.978Z,96387.38
2023-03-12T13:00:23.488Z,96386.47
2023-03-12T13:02:51.264Z,96383.91
2023-03-12T13:05:26.733Z,96388.28
2023-03-12T13:07:53.450Z,96384.84
2023-03-12T13:10:57.454Z,96389.94
2023-03-12T13:13:29.298Z,96382.22
2023-03-12T13:16:19.264Z,96385.53
2023-03-12T13:19:07.425Z,96383.09
2023-03-12T13:21:40.619Z,96376.25
2023-03-12T13:24:32.022Z,96385.66
2023-03-12T13:27:20.379Z,96394.97
2023-03-12T13:29:47.012Z,96375.56
2023-03-12T13:32:35.126Z,96380.72
2023-03-12T13:35:32.492Z,96385.06
2023-03-12T13:38:04.970Z,96377.47
2023-03-12T13:40:32.701Z,96382.63
2023-03-12T13:43:08.161Z,96385.97
2023-03-12T13:45:55.574Z,96381.84
2023-03-12T13:48:24.931Z,96381.91
2023-03-12T13:51:18.964Z,96387.91
2023-03-12T13:53:52.789Z,96393.78
2023-03-12T13:56:26.292Z,96393.00
2023-03-12T13:59:06.838Z,96395.56
2023-03-12T14:01:40.939Z,96388.81
2023-03-12T14:04:20.365Z,96374.44
2023-03-12T14:07:06.289Z,96379.56
2023-03-12T14:09:45.866Z,96368.56
2023-03-12T14:12:43.411Z,96363.56
2023-03-12T14:15:27.357Z,96376.31
2023-03-12T14:18:12.362Z,96382.22
2023-03-12T14:20:39.921Z,96377.94
2023-03-12T14:23:13.068Z,96381.28
2023-03-12T14:25:43.607Z,96381.38
2023-03-12T14:28:29.067Z,96383.88
2023-03-12T14:31:08.419Z,96393.13
2023-03-12T14:33:58.229Z,96384.66
2023-03-12T14:36:45.073Z,96380.38
2023-03-12T14:39:55.731Z,96384.66
2023-03-12T14:42:34.428Z,96376.09
2023-03-12T14:45:18.010Z,96367.59
2023-03-12T14:47:52.572Z,96361.47
2023-03-12T14:50:40.409Z,96374.28
2023-03-12T14:53:29.329Z,96372.50
2023-03-12T14:56:05.268Z,96368.22
2023-03-12T14:58:34.264Z,96370.03
2023-03-12T15:01:12.348Z,96366.63
2023-03-12T15:03:48.144Z,96378.59
2023-03-12T15:06:38.434Z,96377.69
2023-03-12T15:09:07.070Z,96376.00
2023-03-12T15:11:36.720Z,96371.78
2023-03-12T15:14:11.852Z,96377.81
2023-03-12T15:16:38.587Z,96378.53
2023-03-12T15:19:05.263Z,96378.53
2023-03-12T15:21:36.195Z,96381.09
2023-03-12T15:24:03.572Z,96377.78
2023-03-12T15:26:34.457Z,96385.38
2023-03-12T15:29:26.724Z,96381.16
2023-03-12T15:32:14.191Z,96375.44
2023-03-12T15:34:41.898Z,96382.97
2023-03-12T15:37:38.649Z,96379.53
2023-03-12T15:40:19.727Z,96382.09
2023-03-12T15:42:47.800Z,96371.97
2023-03-12T15:45:24.453Z,96373.81
2023-03-12T15:47:53.563Z,96372.00
2023-03-12T15:50:25.755Z,96385.47
2023-03-12T15:53:18.542Z,96380.31
2023-03-12T15:56:07.571Z,96368.53
2023-03-12T15:58:35.058Z,96366.88
2023-03-12T16:01:16.575Z,96362.78
2023-03-12T16:03:45.560Z,96360.22
2023-03-12T16:06:20.809Z,96365.22
2023-03-12T16:08:53.082Z,96365.94
2023-03-12T16:11:22.866Z,96371.00
2023-03-12T16:13:52.036Z,96371.88
2023-03-12T16:16:18.954Z,96359.91
2023-03-12T16:18:45.436Z,96370.06
2023-03-12T16:21:12.806Z,96372.59
2023-03-12T16:23:39.783Z,96367.44
2023-03-12T16:26:06.978Z,96365.69
2023-03-12T16:28:36.233Z,96364.81
2023-03-12T16:31:03.310Z,96366.53
2023-03-12T16:33:29.834Z,96372.34
2023-03-12T16:35:57.065Z,96369.81
2023-03-12T16:38:23.571Z,96371.50
2023-03-12T16:40:51.920Z,96374.97
2023-03-12T16:43:24.565Z,96374.19
2023-03-12T16:45:52.803Z,96386.88
2023-03-12T16:48:23.037Z,96374.06
2023-03-12T16:50:55.932Z,96395.28
2023-03-12T16:53:23.495Z,96396.13
2023-03-12T16:55:53.604Z,96406.16
2023-03-12T16:58:21.347Z,96401.06
2023-03-12T17:00:49.138Z,96404.47
2023-03-12T17:03:36.446Z,96398.59
2023-03-12T17:06:05.520Z,96406.19
2023-03-12T17:08:32.154Z,96404.38
2023-03-12T17:10:59.936Z,96404.28
2023-03-12T17:13:28.569Z,96413.56
2023-03-12T17:15:55.698Z,96412.84
2023-03-12T17:18:22.493Z,96400.16
2023-03-12T17:20:51.818Z,96403.56
2023-03-12T17:23:18.890Z,96403.47
2023-03-12T17:25:46.008Z,96412.81
2023-03-12T17:28:13.689Z,96410.22
2023-03-12T17:30:40.407Z,96413.66
2023-03-12T17:33:10.682Z,96411.91
2023-03-12T17:35:37.903Z,96412.75
2023-03-12T17:38:06.424Z,96416.13
2023-03-12T17:40:32.982Z,96417.81
2023-03-12T17:42:59.515Z,96409.22
2023-03-12T17:45:26.802Z,96404.16
2023-03-12T17:47:53.313Z,96415.19
2023-03-12T17:50:19.972Z,96408.41
2023-03-12T17:52:46.479Z,96421.09
2023-03-12T17:55:15.074Z,96411.63
2023-03-12T17:57:42.581Z,96413.44
2023-03-12T18:00:12.777Z,96408.38
2023-03-12T18:02:41.449Z,96408.25
2023-03-12T18:05:10.095Z,96388.66
2023-03-12T18:07:37.080Z,96409.75
2023-03-12T18:10:06.457Z,96415.59
2023-03-12T18:12:33.764Z,96415.53
2023-03-12T18:15:00.659Z,96422.94
2023-03-12T18:17:27.124Z,96426.34
2023-03-12T18:19:53.579Z,96434.78
2023-03-12T18:22:20.098Z,96432.19
2023-03-12T18:24:47.776Z,96431.34
2023-03-12T18:27:14.319Z,96438.13
2023-03-12T18:29:41.238Z,96427.00
2023-03-12T18:32:08.939Z,96427.13
2023-03-12T18:34:35.811Z,96445.66
2023-03-12T18:37:02.338Z,96440.50
2023-03-12T18:39:28.818Z,96446.38
2023-03-12T18:41:55.845Z,96448.91
2023-03-12T18:44:22.487Z,96451.63
2023-03-12T18:46:50.864Z,96446.44
2023-03-12T18:49:17.814Z,96453.88
2023-03-12T18:51:44.315Z,96453.69
2023-03-12T18:54:12.527Z,96452.22
2023-03-12T18:56:40.937Z,96453.84
2023-03-12T18:59:09.806Z,96453.03
2023-03-12T19:01:36.495Z,96457.22
2023-03-12T19:04:03.058Z,96462.22
2023-03-12T19:06:33.104Z,96459.50
2023-03-12T19:09:09.603Z,96463.75
2023-03-12T19:11:36.172Z,96456.16
2023-03-12T19:14:03.310Z,96456.97
2023-03-12T19:16:31.033Z,96455.16
2023-03-12T19:18:57.822Z,96464.44
2023-03-12T19:21:24.229Z,96463.59
2023-03-12T19:23:50.767Z,96474.56
2023-03-12T19:26:17.112Z,96461.78
2023-03-12T19:28:43.850Z,96471.91
2023-03-12T19:31:13.495Z,96460.91
2023-03-12T19:33:41.850Z,96467.72
2023-03-12T19:36:09.122Z,96460.91
2023-03-12T19:38:35.676Z,96463.34
2023-03-12T19:41:02.260Z,96469.22
2023-03-12T19:43:28.705Z,96470.13
2023-03-12T19:45:55.878Z,96476.00
2023-03-12T19:48:25.371Z,96467.56
2023-03-12T19:50:53.775Z,96473.47
2023-03-12T19:53:20.777Z,96479.34
2023-03-12T19:55:48.877Z,96476.09
2023-03-12T19:58:16.246Z,96476.91
2023-03-12T20:00:43.556Z,96482.75
2023-03-12T20:03:10.452Z,96478.53
2023-03-12T20:05:37.088Z,96477.56
2023-03-12T20:08:03.810Z,96479.25
2023-03-12T20:10:32.187Z,96476.72
2023-03-12T20:12:59.642Z,96476.75
2023-03-12T20:15:32.114Z,96478.31
2023-03-12T20:17:58.637Z,96481.72
2023-03-12T20:20:25.693Z,96496.06
2023-03-12T20:22:54.057Z,96500.31
2023-03-12T20:25:28.496Z,96495.25
2023-03-12T20:27:56.631Z,96511.31
2023-03-12T20:30:23.273Z,96506.31
2023-03-12T20:32:49.738Z,96500.31
2023-03-12T20:35:18.432Z,96494.38
2023-03-12T20:37:46.113Z,96494.41
2023-03-12T20:40:13.800Z,96483.56
2023-03-12T20:42:41.565Z,96485.13
2023-03-12T20:45:10.559Z,96485.88
2023-03-12T20:47:40.078Z,96479.19
2023-03-12T20:50:07.736Z,96472.44
2023-03-12T20:52:34.288Z,96473.38
2023-03-12T20:55:00.798Z,96480.16
2023-03-12T20:57:27.332Z,96478.50
2023-03-12T20:59:53.732Z,96476.00
2023-03-12T21:02:20.179Z,96474.28
2023-03-12T21:04:46.782Z,96478.44
2023-03-12T21:07:13.229Z,96476.72
2023-03-12T21:09:39.764Z,96481.78
2023-03-12T21:12:06.304Z,96488.63
2023-03-12T21:14:32.762Z,96495.41
2023-03-12T21:16:59.445Z,96504.78
2023-03-12T21:19:29.536Z,96504.84
2023-03-12T21:21:56.065Z,96510.72
2023-03-12T21:24:23.596Z,96516.56
2023-03-12T21:26:50.070Z,96509.75
2023-03-12T21:29:16.478Z,96519.03
2023-03-12T21:31:44.109Z,96510.50
2023-03-12T21:34:10.622Z,96507.94
2023-03-12T21:36:37.033Z,96498.78
2023-03-12T21:39:03.666Z,96498.91
2023-03-12T21:41:30.269Z,96493.00
2023-03-12T21:44:01.227Z,96492.19
2023-03-12T21:46:29.941Z,96492.94
2023-03-12T21:48:57.741Z,96487.06
2023-03-12T21:51:26.072Z,96478.75
2023-03-12T21:53:57.715Z,96482.16
2023-03-12T21:56:28.850Z,96477.91
2023-03-12T21:58:57.182Z,96476.19
2023-03-12T22:01:23.833Z,96475.31
2023-03-12T22:03:50.389Z,96461.88
2023-03-12T22:06:17.221Z,96470.34
2023-03-12T22:08:44.706Z,96464.38
2023-03-12T22:11:11.134Z,96471.16
2023-03-12T22:13:37.558Z,96463.63
2023-03-12T22:16:07.545Z,96460.22
2023-03-12T22:18:38.193Z,96455.03
2023-03-12T22:21:05.435Z,96461.88
2023-03-12T22:23:32.184Z,96461.88
2023-03-12T22:26:03.924Z,96461.06
2023-03-12T22:28:31.482Z,96460.25
2023-03-12T22:31:03.322Z,96461.06
2023-03-12T22:33:30.085Z,96458.53
2023-03-12T22:35:57.097Z,96458.53
2023-03-12T22:38:24.899Z,96454.97
2023-03-12T22:40:53.180Z,96455.00
2023-03-12T22:43:21.573Z,96449.97
2023-03-12T22:45:52.972Z,96451.63
2023-03-12T22:48:19.411Z,96451.69
2023-03-12T22:50:53.309Z,96450.88
2023-03-12T22:53:19.783Z,96444.03
2023-03-12T22:55:46.306Z,96448.25
2023-03-12T22:58:13.130Z,96444.84
2023-03-12T23:00:39.511Z,96438.13
2023-03-12T23:03:05.921Z,96444.34
2023-03-12T23:05:32.442Z,96437.47
2023-03-12T23:07:58.811Z,96437.34
2023-03-12T23:10:25.269Z,96440.78
2023-03-12T23:12:51.715Z,96441.56
2023-03-12T23:15:19.805Z,96432.28
2023-03-12T23:17:46.288Z,96429.78
2023-03-12T23:20:13.381Z,96420.53
2023-03-12T23:22:39.794Z,96427.28
2023-03-12T23:25:06.564Z,96426.66
2023-03-12T23:27:32.972Z,96424.28
2023-03-12T23:29:59.428Z,96427.56
2023-03-12T23:32:25.897Z,96425.84
2023-03-12T23:34:52.396Z,96413.06
2023-03-12T23:37:18.916Z,96413.94
2023-03-12T23:39:54.489Z,96417.28
2023-03-12T23:42:21.489Z,96408.81
2023-03-12T23:44:47.963Z,96406.28
2023-03-12T23:47:14.454Z,96405.41
2023-03-12T23:49:40.840Z,96400.41
2023-03-12T23:52:07.339Z,96399.63
2023-03-12T23:54:33.724Z,96407.94
2023-03-12T23:57:00.204Z,96402.84
2023-03-12T23:59:26.690Z,96393.56
